sensor_id;sensor_type;location;lat;lon;timestamp;pressure;altitude;pressure_sealevel;temperature;humidity
51468;BME280;37545;45.302;-122.946;2023-03-04T00:00:05;100669.09;;;6.29;97.73
51468;BME280;37545;45.302;-122.946;2023-03-04T00:02:34;100668.53;;;6.35;98.53
51468;BME280;37545;45.302;-122.946;2023-03-04T00:05:02;100653.81;;;6.32;100.00
51468;BME280;37545;45.302;-122.946;2023-03-04T00:07:31;100649.84;;;6.39;99.42
51468;BME280;37545;45.302;-122.946;2023-03-04T00:09:59;100650.88;;;6.42;99.27
51468;BME280;37545;45.302;-122.946;2023-03-04T00:12:28;100643.94;;;6.41;98.95
51468;BME280;37545;45.302;-122.946;2023-03-04T00:14:57;100644.56;;;6.36;100.00
51468;BME280;37545;45.302;-122.946;2023-03-04T00:17:27;100642.06;;;6.37;100.00
51468;BME280;37545;45.302;-122.946;2023-03-04T00:19:57;100646.47;;;6.40;100.00
51468;BME280;37545;45.302;-122.946;2023-03-04T00:22:25;100649.09;;;6.41;100.00
51468;BME280;37545;45.302;-122.946;2023-03-04T00:24:54;100644.78;;;6.40;100.00
51468;BME280;37545;45.302;-122.946;2023-03-04T00:27:22;100635.31;;;6.39;100.00
51468;BME280;37545;45.302;-122.946;2023-03-04T00:29:51;100636.25;;;6.41;100.00
51468;BME280;37545;45.302;-122.946;2023-03-04T00:32:19;100627.66;;;6.41;100.00
51468;BME280;37545;45.302;-122.946;2023-03-04T00:34:49;100630.03;;;6.36;100.00
51468;BME280;37545;45.302;-122.946;2023-03-04T00:37:18;100639.84;;;6.45;100.00
51468;BME280;37545;45.302;-122.946;2023-03-04T00:39:46;100637.34;;;6.46;100.00
51468;BME280;37545;45.302;-122.946;2023-03-04T00:42:15;100633.06;;;6.47;100.00
51468;BME280;37545;45.302;-122.946;2023-03-04T00:44:43;100618.41;;;6.44;100.00
51468;BME280;37545;45.302;-122.946;2023-03-04T00:47:12;100608.13;;;6.44;100.00
51468;BME280;37545;45.302;-122.946;2023-03-04T00:49:40;100604.72;;;6.45;100.00
51468;BME280;37545;45.302;-122.946;2023-03-04T00:52:10;100595.13;;;6.41;100.00
51468;BME280;37545;45.302;-122.946;2023-03-04T00:54:39;100593.28;;;6.39;100.00
51468;BME280;37545;45.302;-122.946;2023-03-04T00:57:08;100582.03;;;6.35;100.00
51468;BME280;37545;45.302;-122.946;2023-03-04T00:59:36;100579.28;;;6.32;100.00
51468;BME280;37545;45.302;-122.946;2023-03-04T01:02:06;100568.22;;;6.33;100.00
51468;BME280;37545;45.302;-122.946;2023-03-04T01:04:34;100560.59;;;6.35;100.00
51468;BME280;37545;45.302;-122.946;2023-03-04T01:07:03;100552.94;;;6.36;100.00
51468;BME280;37545;45.302;-122.946;2023-03-04T01:09:33;100549.59;;;6.39;100.00
51468;BME280;37545;45.302;-122.946;2023-03-04T01:12:02;100549.56;;;6.37;100.00
51468;BME280;37545;45.302;-122.946;2023-03-04T01:14:31;100544.28;;;6.34;100.00
51468;BME280;37545;45.302;-122.946;2023-03-04T01:16:59;100537.97;;;6.27;98.72
51468;BME280;37545;45.302;-122.946;2023-03-04T01:19:28;100533.34;;;6.19;98.85
51468;BME280;37545;45.302;-122.946;2023-03-04T01:21:56;100533.06;;;6.13;100.00
51468;BME280;37545;45.302;-122.946;2023-03-04T01:24:25;100529.44;;;6.07;100.00
51468;BME280;37545;45.302;-122.946;2023-03-04T01:26:57;100522.59;;;6.08;100.00
51468;BME280;37545;45.302;-122.946;2023-03-04T01:29:25;100527.00;;;6.11;100.00
51468;BME280;37545;45.302;-122.946;2023-03-04T01:31:54;100525.16;;;6.08;100.00
51468;BME280;37545;45.302;-122.946;2023-03-04T01:34:22;100524.09;;;6.03;100.00
51468;BME280;37545;45.302;-122.946;2023-03-04T01:36:51;100521.53;;;6.03;100.00
51468;BME280;37545;45.302;-122.946;2023-03-04T01:39:19;100519.00;;;6.04;100.00
51468;BME280;37545;45.302;-122.946;2023-03-04T01:41:48;100516.38;;;6.03;100.00
51468;BME280;37545;45.302;-122.946;2023-03-04T01:44:18;100511.25;;;6.03;100.00
51468;BME280;37545;45.302;-122.946;2023-03-04T01:46:49;100503.59;;;6.04;100.00
51468;BME280;37545;45.302;-122.946;2023-03-04T01:49:19;100495.09;;;6.05;100.00
51468;BME280;37545;45.302;-122.946;2023-03-04T01:51:50;100497.75;;;6.07;100.00
51468;BME280;37545;45.302;-122.946;2023-03-04T01:54:20;100496.03;;;6.07;100.00
51468;BME280;37545;45.302;-122.946;2023-03-04T01:56:50;100488.34;;;6.07;100.00
51468;BME280;37545;45.302;-122.946;2023-03-04T01:59:22;100484.94;;;6.08;100.00
51468;BME280;37545;45.302;-122.946;2023-03-04T02:01:53;100483.19;;;6.07;100.00
51468;BME280;37545;45.302;-122.946;2023-03-04T02:04:23;100471.31;;;6.10;100.00
51468;BME280;37545;45.302;-122.946;2023-03-04T02:06:53;100472.19;;;6.10;100.00
51468;BME280;37545;45.302;-122.946;2023-03-04T02:09:22;100464.53;;;6.12;100.00
51468;BME280;37545;45.302;-122.946;2023-03-04T02:11:52;100461.16;;;6.13;100.00
51468;BME280;37545;45.302;-122.946;2023-03-04T02:14:22;100457.63;;;6.11;100.00
51468;BME280;37545;45.302;-122.946;2023-03-04T02:16:51;100453.38;;;6.11;100.00
51468;BME280;37545;45.302;-122.946;2023-03-04T02:19:31;100459.41;;;6.12;100.00
51468;BME280;37545;45.302;-122.946;2023-03-04T02:22:02;100448.94;;;6.07;100.00
51468;BME280;37545;45.302;-122.946;2023-03-04T02:24:44;100459.44;;;6.13;100.00
51468;BME280;37545;45.302;-122.946;2023-03-04T02:27:15;100454.28;;;6.12;100.00
51468;BME280;37545;45.302;-122.946;2023-03-04T02:29:43;100443.84;;;6.08;100.00
51468;BME280;37545;45.302;-122.946;2023-03-04T02:32:13;100439.56;;;6.09;100.00
51468;BME280;37545;45.302;-122.946;2023-03-04T02:34:45;100438.84;;;6.12;100.00
51468;BME280;37545;45.302;-122.946;2023-03-04T02:37:15;100435.38;;;6.11;100.00
51468;BME280;37545;45.302;-122.946;2023-03-04T02:39:45;100438.69;;;6.08;100.00
51468;BME280;37545;45.302;-122.946;2023-03-04T02:42:16;100427.56;;;6.08;100.00
51468;BME280;37545;45.302;-122.946;2023-03-04T02:44:45;100428.25;;;6.04;100.00
51468;BME280;37545;45.302;-122.946;2023-03-04T02:47:17;100421.72;;;5.93;100.00
51468;BME280;37545;45.302;-122.946;2023-03-04T02:49:46;100421.50;;;5.86;100.00
51468;BME280;37545;45.302;-122.946;2023-03-04T02:52:19;100419.44;;;5.79;100.00
51468;BME280;37545;45.302;-122.946;2023-03-04T02:54:48;100411.50;;;5.73;100.00
51468;BME280;37545;45.302;-122.946;2023-03-04T02:57:18;100412.09;;;5.67;100.00
51468;BME280;37545;45.302;-122.946;2023-03-04T02:59:47;100410.06;;;5.60;100.00
51468;BME280;37545;45.302;-122.946;2023-03-04T03:02:16;100413.72;;;5.46;100.00
51468;BME280;37545;45.302;-122.946;2023-03-04T03:04:44;100412.56;;;5.39;100.00
51468;BME280;37545;45.302;-122.946;2023-03-04T03:07:13;100405.53;;;5.35;100.00
51468;BME280;37545;45.302;-122.946;2023-03-04T03:09:41;100403.63;;;5.31;100.00
51468;BME280;37545;45.302;-122.946;2023-03-04T03:12:10;100383.75;;;5.25;100.00
51468;BME280;37545;45.302;-122.946;2023-03-04T03:14:40;100386.59;;;5.32;100.00
51468;BME280;37545;45.302;-122.946;2023-03-04T03:17:09;100384.03;;;5.32;100.00
51468;BME280;37545;45.302;-122.946;2023-03-04T03:19:37;100383.75;;;5.25;100.00
51468;BME280;37545;45.302;-122.946;2023-03-04T03:22:06;100381.84;;;5.21;100.00
51468;BME280;37545;45.302;-122.946;2023-03-04T03:24:34;100381.50;;;5.14;100.00
51468;BME280;37545;45.302;-122.946;2023-03-04T03:27:03;100381.97;;;5.05;100.00
51468;BME280;37545;45.302;-122.946;2023-03-04T03:29:31;100380.44;;;5.09;100.00
51468;BME280;37545;45.302;-122.946;2023-03-04T03:32:02;100366.78;;;5.10;100.00
51468;BME280;37545;45.302;-122.946;2023-03-04T03:34:30;100378.44;;;5.03;100.00
51468;BME280;37545;45.302;-122.946;2023-03-04T03:36:59;100365.63;;;5.03;100.00
51468;BME280;37545;45.302;-122.946;2023-03-04T03:39:27;100364.00;;;5.05;100.00
51468;BME280;37545;45.302;-122.946;2023-03-04T03:41:56;100360.63;;;5.06;100.00
51468;BME280;37545;45.302;-122.946;2023-03-04T03:44:24;100348.75;;;5.08;100.00
51468;BME280;37545;45.302;-122.946;2023-03-04T03:46:53;100351.47;;;5.11;100.00
51468;BME280;37545;45.302;-122.946;2023-03-04T03:49:23;100337.50;;;5.04;100.00
51468;BME280;37545;45.302;-122.946;2023-03-04T03:51:52;100334.78;;;5.01;100.00
51468;BME280;37545;45.302;-122.946;2023-03-04T03:54:21;100332.28;;;5.03;100.00
51468;BME280;37545;45.302;-122.946;2023-03-04T03:56:49;100331.28;;;4.99;100.00
51468;BME280;37545;45.302;-122.946;2023-03-04T03:59:18;100333.84;;;4.99;100.00
51468;BME280;37545;45.302;-122.946;2023-03-04T04:01:46;100332.69;;;4.93;100.00
51468;BME280;37545;45.302;-122.946;2023-03-04T04:04:15;100321.53;;;4.92;100.00
51468;BME280;37545;45.302;-122.946;2023-03-04T04:06:45;100327.41;;;4.90;100.00
51468;BME280;37545;45.302;-122.946;2023-03-04T04:09:14;100314.53;;;4.88;100.00
51468;BME280;37545;45.302;-122.946;2023-03-04T04:11:42;100315.41;;;4.89;100.00
51468;BME280;37545;45.302;-122.946;2023-03-04T04:14:41;100315.41;;;4.89;100.00
51468;BME280;37545;45.302;-122.946;2023-03-04T04:17:16;100316.91;;;4.83;100.00
51468;BME280;37545;45.302;-122.946;2023-03-04T04:19:45;100313.38;;;4.81;100.00
51468;BME280;37545;45.302;-122.946;2023-03-04T04:22:15;100303.25;;;4.85;100.00
51468;BME280;37545;45.302;-122.946;2023-03-04T04:24:44;100294.63;;;4.82;100.00
51468;BME280;37545;45.302;-122.946;2023-03-04T04:27:13;100286.34;;;4.88;100.00
51468;BME280;37545;45.302;-122.946;2023-03-04T04:29:43;100288.50;;;4.79;100.00
51468;BME280;37545;45.302;-122.946;2023-03-04T04:32:11;100285.97;;;4.80;100.00
51468;BME280;37545;45.302;-122.946;2023-03-04T04:34:40;100280.06;;;4.81;100.00
51468;BME280;37545;45.302;-122.946;2023-03-04T04:37:08;100288.69;;;4.83;100.00
51468;BME280;37545;45.302;-122.946;2023-03-04T04:39:37;100281.69;;;4.79;100.00
51468;BME280;37545;45.302;-122.946;2023-03-04T04:42:07;100290.09;;;4.77;100.00
51468;BME280;37545;45.302;-122.946;2023-03-04T04:44:36;100277.22;;;4.75;100.00
51468;BME280;37545;45.302;-122.946;2023-03-04T04:47:06;100281.69;;;4.79;100.00
51468;BME280;37545;45.302;-122.946;2023-03-04T04:49:35;100279.13;;;4.79;100.00
51468;BME280;37545;45.302;-122.946;2023-03-04T04:52:04;100275.59;;;4.77;100.00
51468;BME280;37545;45.302;-122.946;2023-03-04T04:54:32;100260.22;;;4.77;100.00
51468;BME280;37545;45.302;-122.946;2023-03-04T04:57:01;100252.25;;;4.71;100.00
51468;BME280;37545;45.302;-122.946;2023-03-04T04:59:29;100249.09;;;4.77;100.00
51468;BME280;37545;45.302;-122.946;2023-03-04T05:01:58;100255.22;;;4.80;100.00
51468;BME280;37545;45.302;-122.946;2023-03-04T05:04:28;100248.56;;;4.84;100.00
51468;BME280;37545;45.302;-122.946;2023-03-04T05:06:57;100253.88;;;4.89;100.00
51468;BME280;37545;45.302;-122.946;2023-03-04T05:09:25;100246.28;;;4.90;100.00
51468;BME280;37545;45.302;-122.946;2023-03-04T05:11:54;100240.00;;;4.83;100.00
51468;BME280;37545;45.302;-122.946;2023-03-04T05:14:22;100234.16;;;4.88;100.00
51468;BME280;37545;45.302;-122.946;2023-03-04T05:16:51;100232.50;;;4.88;100.00
51468;BME280;37545;45.302;-122.946;2023-03-04T05:19:20;100230.69;;;4.86;100.00
51468;BME280;37545;45.302;-122.946;2023-03-04T05:21:50;100220.34;;;4.84;100.00
51468;BME280;37545;45.302;-122.946;2023-03-04T05:24:19;100229.75;;;4.83;100.00
51468;BME280;37545;45.302;-122.946;2023-03-04T05:26:47;100223.00;;;4.86;100.00
51468;BME280;37545;45.302;-122.946;2023-03-04T05:29:15;100223.00;;;4.86;100.00
51468;BME280;37545;45.302;-122.946;2023-03-04T05:31:44;100221.09;;;4.81;100.00
51468;BME280;37545;45.302;-122.946;2023-03-04T05:34:12;100220.44;;;4.86;100.00
51468;BME280;37545;45.302;-122.946;2023-03-04T05:36:41;100212.00;;;4.88;100.00
51468;BME280;37545;45.302;-122.946;2023-03-04T05:39:11;100205.72;;;4.81;100.00
51468;BME280;37545;45.302;-122.946;2023-03-04T05:41:40;100198.97;;;4.83;100.00
51468;BME280;37545;45.302;-122.946;2023-03-04T05:44:08;100190.59;;;4.88;100.00
51468;BME280;37545;45.302;-122.946;2023-03-04T05:46:37;100207.00;;;4.91;100.00
51468;BME280;37545;45.302;-122.946;2023-03-04T05:49:05;100198.47;;;4.92;100.00
51468;BME280;37545;45.302;-122.946;2023-03-04T05:51:33;100198.44;;;4.91;100.00
51468;BME280;37545;45.302;-122.946;2023-03-04T05:54:02;100188.97;;;4.90;100.00
51468;BME280;37545;45.302;-122.946;2023-03-04T05:56:32;100189.59;;;4.84;100.00
51468;BME280;37545;45.302;-122.946;2023-03-04T05:59:01;100176.91;;;4.87;100.00
51468;BME280;37545;45.302;-122.946;2023-03-04T06:01:29;100174.97;;;4.81;100.00
51468;BME280;37545;45.302;-122.946;2023-03-04T06:03:58;100182.00;;;4.86;100.00
51468;BME280;37545;45.302;-122.946;2023-03-04T06:06:26;100176.97;;;4.69;100.00
51468;BME280;37545;45.302;-122.946;2023-03-04T06:08:55;100170.19;;;4.70;100.00
51468;BME280;37545;45.302;-122.946;2023-03-04T06:11:24;100163.91;;;4.63;100.00
51468;BME280;37545;45.302;-122.946;2023-03-04T06:13:54;100165.94;;;4.70;100.00
51468;BME280;37545;45.302;-122.946;2023-03-04T06:16:23;100162.56;;;4.71;100.00
51468;BME280;37545;45.302;-122.946;2023-03-04T06:18:51;100158.03;;;4.66;100.00
51468;BME280;37545;45.302;-122.946;2023-03-04T06:21:20;100153.78;;;4.66;100.00
51468;BME280;37545;45.302;-122.946;2023-03-04T06:23:48;100148.66;;;4.66;100.00
51468;BME280;37545;45.302;-122.946;2023-03-04T06:26:17;100145.03;;;4.61;100.00
51468;BME280;37545;45.302;-122.946;2023-03-04T06:28:45;100143.47;;;4.65;100.00
51468;BME280;37545;45.302;-122.946;2023-03-04T06:31:15;100146.03;;;4.65;100.00
51468;BME280;37545;45.302;-122.946;2023-03-04T06:33:44;100135.03;;;4.67;100.00
51468;BME280;37545;45.302;-122.946;2023-03-04T06:36:13;100135.84;;;4.66;100.00
51468;BME280;37545;45.302;-122.946;2023-03-04T06:38:41;100110.09;;;4.63;100.00
51468;BME280;37545;45.302;-122.946;2023-03-04T06:41:11;100103.16;;;4.60;100.00
51468;BME280;37545;45.302;-122.946;2023-03-04T06:43:40;100096.34;;;4.61;100.00
51468;BME280;37545;45.302;-122.946;2023-03-04T06:46:08;100101.59;;;4.64;100.00
51468;BME280;37545;45.302;-122.946;2023-03-04T06:48:39;100094.19;;;4.70;100.00
51468;BME280;37545;45.302;-122.946;2023-03-04T06:51:08;100088.38;;;4.74;100.00
51468;BME280;37545;45.302;-122.946;2023-03-04T06:53:38;100081.75;;;4.79;100.00
51468;BME280;37545;45.302;-122.946;2023-03-04T06:56:08;100081.75;;;4.79;100.00
51468;BME280;37545;45.302;-122.946;2023-03-04T06:58:37;100087.94;;;4.85;100.00
51468;BME280;37545;45.302;-122.946;2023-03-04T07:01:13;100074.31;;;4.86;100.00
51468;BME280;37545;45.302;-122.946;2023-03-04T07:03:44;100067.53;;;4.88;100.00
51468;BME280;37545;45.302;-122.946;2023-03-04T07:06:14;100057.44;;;4.91;100.00
51468;BME280;37545;45.302;-122.946;2023-03-04T07:08:43;100049.88;;;4.94;100.00
51468;BME280;37545;45.302;-122.946;2023-03-04T07:11:12;100047.31;;;4.94;100.00
51468;BME280;37545;45.302;-122.946;2023-03-04T07:13:41;100040.44;;;4.93;100.00
51468;BME280;37545;45.302;-122.946;2023-03-04T07:16:13;100041.38;;;4.95;100.00
51468;BME280;37545;45.302;-122.946;2023-03-04T07:18:44;100038.94;;;4.98;100.00
51468;BME280;37545;45.302;-122.946;2023-03-04T07:21:14;100038.09;;;4.99;100.00
51468;BME280;37545;45.302;-122.946;2023-03-04T07:23:43;100034.66;;;4.98;100.00
51468;BME280;37545;45.302;-122.946;2023-03-04T07:26:11;100025.25;;;4.97;100.00
51468;BME280;37545;45.302;-122.946;2023-03-04T07:28:40;100022.03;;;5.03;100.00
51468;BME280;37545;45.302;-122.946;2023-03-04T07:31:10;100017.84;;;5.05;100.00
51468;BME280;37545;45.302;-122.946;2023-03-04T07:33:39;100012.78;;;5.07;100.00
51468;BME280;37545;45.302;-122.946;2023-03-04T07:36:09;100006.91;;;5.09;100.00
51468;BME280;37545;45.302;-122.946;2023-03-04T07:38:43;99998.38;;;5.10;100.00
51468;BME280;37545;45.302;-122.946;2023-03-04T07:41:11;99992.31;;;5.08;100.00
51468;BME280;37545;45.302;-122.946;2023-03-04T07:43:40;99981.38;;;5.12;100.00
51468;BME280;37545;45.302;-122.946;2023-03-04T07:46:09;99984.94;;;5.16;100.00
51468;BME280;37545;45.302;-122.946;2023-03-04T07:48:38;99980.75;;;5.18;100.00
51468;BME280;37545;45.302;-122.946;2023-03-04T07:51:09;99975.66;;;5.19;100.00
51468;BME280;37545;45.302;-122.946;2023-03-04T07:53:39;99969.59;;;5.17;100.00
51468;BME280;37545;45.302;-122.946;2023-03-04T07:56:10;99973.16;;;5.21;100.00
51468;BME280;37545;45.302;-122.946;2023-03-04T07:58:39;99961.97;;;5.19;100.00
51468;BME280;37545;45.302;-122.946;2023-03-04T08:01:09;99967.97;;;5.19;100.00
51468;BME280;37545;45.302;-122.946;2023-03-04T08:03:45;99957.69;;;5.19;100.00
51468;BME280;37545;45.302;-122.946;2023-03-04T08:06:17;99952.41;;;5.15;99.97
51468;BME280;37545;45.302;-122.946;2023-03-04T08:08:47;99955.97;;;5.18;97.94
51468;BME280;37545;45.302;-122.946;2023-03-04T08:11:17;99944.88;;;5.19;98.47
51468;BME280;37545;45.302;-122.946;2023-03-04T08:13:46;99931.94;;;5.16;96.79
51468;BME280;37545;45.302;-122.946;2023-03-04T08:16:27;99935.09;;;5.09;96.18
51468;BME280;37545;45.302;-122.946;2023-03-04T08:18:57;99936.97;;;5.13;97.28
51468;BME280;37545;45.302;-122.946;2023-03-04T08:21:28;99926.81;;;5.16;97.21
51468;BME280;37545;45.302;-122.946;2023-03-04T08:23:58;99927.63;;;5.15;98.86
51468;BME280;37545;45.302;-122.946;2023-03-04T08:26:31;99920.69;;;5.13;96.13
51468;BME280;37545;45.302;-122.946;2023-03-04T08:29:02;99918.47;;;5.22;97.89
51468;BME280;37545;45.302;-122.946;2023-03-04T08:31:31;99920.34;;;5.26;97.03
51468;BME280;37545;45.302;-122.946;2023-03-04T08:34:02;99911.00;;;5.28;95.80
51468;BME280;37545;45.302;-122.946;2023-03-04T08:36:32;99913.66;;;5.30;94.26
51468;BME280;37545;45.302;-122.946;2023-03-04T08:39:00;99906.88;;;5.32;94.77
51468;BME280;37545;45.302;-122.946;2023-03-04T08:41:29;99900.84;;;5.31;93.65
51468;BME280;37545;45.302;-122.946;2023-03-04T08:43:58;99890.66;;;5.33;93.75
51468;BME280;37545;45.302;-122.946;2023-03-04T08:46:27;99883.06;;;5.36;92.93
51468;BME280;37545;45.302;-122.946;2023-03-04T08:48:56;99879.00;;;5.41;92.78
51468;BME280;37545;45.302;-122.946;2023-03-04T08:51:25;99877.38;;;5.43;92.17
51468;BME280;37545;45.302;-122.946;2023-03-04T08:53:55;99867.13;;;5.44;91.12
51468;BME280;37545;45.302;-122.946;2023-03-04T08:56:23;99867.09;;;5.43;90.34
51468;BME280;37545;45.302;-122.946;2023-03-04T08:58:52;99864.63;;;5.46;90.74
51468;BME280;37545;45.302;-122.946;2023-03-04T09:01:21;99837.78;;;5.36;89.31
51468;BME280;37545;45.302;-122.946;2023-03-04T09:03:49;99856.25;;;5.50;89.50
51468;BME280;37545;45.302;-122.946;2023-03-04T09:06:18;99841.81;;;5.54;89.29
51468;BME280;37545;45.302;-122.946;2023-03-04T09:08:47;99844.53;;;5.58;88.76
51468;BME280;37545;45.302;-122.946;2023-03-04T09:11:18;99841.16;;;5.59;89.66
51468;BME280;37545;45.302;-122.946;2023-03-04T09:13:46;99838.75;;;5.64;89.28
51468;BME280;37545;45.302;-122.946;2023-03-04T09:16:16;99831.97;;;5.66;88.42
51468;BME280;37545;45.302;-122.946;2023-03-04T09:18:45;99835.41;;;5.66;87.65
51468;BME280;37545;45.302;-122.946;2023-03-04T09:21:13;99831.22;;;5.69;88.02
51468;BME280;37545;45.302;-122.946;2023-03-04T09:23:42;99831.22;;;5.69;88.75
51468;BME280;37545;45.302;-122.946;2023-03-04T09:26:18;99845.47;;;5.60;86.28
51468;BME280;37545;45.302;-122.946;2023-03-04T09:28:50;99832.56;;;5.59;87.30
51468;BME280;37545;45.302;-122.946;2023-03-04T09:31:19;99824.78;;;5.56;86.31
51468;BME280;37545;45.302;-122.946;2023-03-04T09:33:47;99818.78;;;5.55;86.72
51468;BME280;37545;45.302;-122.946;2023-03-04T09:36:16;99804.19;;;5.54;86.67
51468;BME280;37545;45.302;-122.946;2023-03-04T09:38:45;99793.03;;;5.52;84.64
51468;BME280;37545;45.302;-122.946;2023-03-04T09:41:17;99783.66;;;5.54;84.34
51468;BME280;37545;45.302;-122.946;2023-03-04T09:43:49;99782.84;;;5.55;84.63
51468;BME280;37545;45.302;-122.946;2023-03-04T09:46:21;99774.31;;;5.56;85.08
51468;BME280;37545;45.302;-122.946;2023-03-04T09:48:51;99773.53;;;5.59;85.40
51468;BME280;37545;45.302;-122.946;2023-03-04T09:51:27;99761.47;;;5.55;82.25
51468;BME280;37545;45.302;-122.946;2023-03-04T09:54:07;99764.06;;;5.56;81.30
51468;BME280;37545;45.302;-122.946;2023-03-04T09:56:39;99746.22;;;5.59;81.28
51468;BME280;37545;45.302;-122.946;2023-03-04T09:59:16;99741.88;;;5.58;81.38
51468;BME280;37545;45.302;-122.946;2023-03-04T10:01:53;99731.63;;;5.58;79.73
51468;BME280;37545;45.302;-122.946;2023-03-04T10:04:30;99714.69;;;5.63;79.70
51468;BME280;37545;45.302;-122.946;2023-03-04T10:07:02;99705.44;;;5.69;80.95
51468;BME280;37545;45.302;-122.946;2023-03-04T10:09:41;99693.56;;;5.72;82.02
51468;BME280;37545;45.302;-122.946;2023-03-04T10:12:17;99687.66;;;5.75;84.57
51468;BME280;37545;45.302;-122.946;2023-03-04T10:14:49;99673.03;;;5.72;82.61
51468;BME280;37545;45.302;-122.946;2023-03-04T10:17:23;99664.56;;;5.75;86.22
51468;BME280;37545;45.302;-122.946;2023-03-04T10:19:59;99663.66;;;5.73;83.23
51468;BME280;37545;45.302;-122.946;2023-03-04T10:22:34;99656.72;;;5.70;77.20
51468;BME280;37545;45.302;-122.946;2023-03-04T10:25:15;99646.72;;;5.78;81.47
51468;BME280;37545;45.302;-122.946;2023-03-04T10:27:49;99648.34;;;5.76;77.41
51468;BME280;37545;45.302;-122.946;2023-03-04T10:30:29;99637.25;;;5.77;77.19
51468;BME280;37545;45.302;-122.946;2023-03-04T10:32:59;99632.25;;;5.81;77.71
51468;BME280;37545;45.302;-122.946;2023-03-04T10:35:35;99635.75;;;5.83;77.88
51468;BME280;37545;45.302;-122.946;2023-03-04T10:38:06;99617.81;;;5.85;76.74
51468;BME280;37545;45.302;-122.946;2023-03-04T10:40:38;99609.28;;;5.86;74.49
51468;BME280;37545;45.302;-122.946;2023-03-04T10:43:16;99612.69;;;5.85;74.32
51468;BME280;37545;45.302;-122.946;2023-03-04T10:45:45;99596.56;;;5.89;77.68
51468;BME280;37545;45.302;-122.946;2023-03-04T10:48:22;99592.28;;;5.90;76.16
51468;BME280;37545;45.302;-122.946;2023-03-04T10:50:51;99586.44;;;5.94;77.36
51468;BME280;37545;45.302;-122.946;2023-03-04T10:53:28;99577.91;;;5.95;75.00
51468;BME280;37545;45.302;-122.946;2023-03-04T10:55:59;99570.28;;;5.96;75.89
51468;BME280;37545;45.302;-122.946;2023-03-04T10:58:30;99568.41;;;5.92;72.75
51468;BME280;37545;45.302;-122.946;2023-03-04T11:01:05;99564.28;;;5.97;73.50
51468;BME280;37545;45.302;-122.946;2023-03-04T11:03:35;99568.63;;;5.98;74.49
51468;BME280;37545;45.302;-122.946;2023-03-04T11:06:15;99555.03;;;6.02;74.38
51468;BME280;37545;45.302;-122.946;2023-03-04T11:08:52;99544.72;;;6.01;72.51
51468;BME280;37545;45.302;-122.946;2023-03-04T11:11:28;99540.50;;;6.03;74.33
51468;BME280;37545;45.302;-122.946;2023-03-04T11:14:07;99530.25;;;6.04;72.44
51468;BME280;37545;45.302;-122.946;2023-03-04T11:16:38;99526.88;;;6.05;75.49
51468;BME280;37545;45.302;-122.946;2023-03-04T11:19:13;99527.69;;;6.04;73.86
51468;BME280;37545;45.302;-122.946;2023-03-04T11:21:43;99518.31;;;6.05;72.59
51468;BME280;37545;45.302;-122.946;2023-03-04T11:24:16;99517.53;;;6.07;72.11
51468;BME280;37545;45.302;-122.946;2023-03-04T11:26:49;99496.97;;;6.07;73.22
51468;BME280;37545;45.302;-122.946;2023-03-04T11:29:25;99493.69;;;6.12;71.27
51468;BME280;37545;45.302;-122.946;2023-03-04T11:31:59;99490.25;;;6.13;72.05
51468;BME280;37545;45.302;-122.946;2023-03-04T11:34:36;99480.84;;;6.13;71.88
51468;BME280;37545;45.302;-122.946;2023-03-04T11:37:11;99474.00;;;6.14;71.08
51468;BME280;37545;45.302;-122.946;2023-03-04T11:39:51;99474.13;;;6.17;72.87
51468;BME280;37545;45.302;-122.946;2023-03-04T11:42:30;99465.63;;;6.19;71.34
51468;BME280;37545;45.302;-122.946;2023-03-04T11:45:10;99463.00;;;6.18;70.65
51468;BME280;37545;45.302;-122.946;2023-03-04T11:47:51;99458.72;;;6.18;70.42
51468;BME280;37545;45.302;-122.946;2023-03-04T11:50:29;99455.34;;;6.19;70.34
51468;BME280;37545;45.302;-122.946;2023-03-04T11:53:15;99463.09;;;6.21;70.32
51468;BME280;37545;45.302;-122.946;2023-03-04T11:55:56;99452.03;;;6.23;71.65
51468;BME280;37545;45.302;-122.946;2023-03-04T11:58:44;99456.38;;;6.26;71.00
51468;BME280;37545;45.302;-122.946;2023-03-04T12:01:22;99451.31;;;6.29;74.34
51468;BME280;37545;45.302;-122.946;2023-03-04T12:04:10;99451.31;;;6.29;74.05
51468;BME280;37545;45.302;-122.946;2023-03-04T12:06:54;99444.50;;;6.31;72.45
51468;BME280;37545;45.302;-122.946;2023-03-04T12:09:35;99448.84;;;6.34;72.40
51468;BME280;37545;45.302;-122.946;2023-03-04T12:12:23;99446.34;;;6.35;72.73
51468;BME280;37545;45.302;-122.946;2023-03-04T12:15:07;99445.47;;;6.35;77.45
51468;BME280;37545;45.302;-122.946;2023-03-04T12:18:01;99428.31;;;6.34;73.47
51468;BME280;37545;45.302;-122.946;2023-03-04T12:20:51;99428.94;;;6.25;69.36
51468;BME280;37545;45.302;-122.946;2023-03-04T12:23:44;99433.25;;;6.26;74.19
51468;BME280;37545;45.302;-122.946;2023-03-04T12:26:24;99432.41;;;6.27;71.92
51468;BME280;37545;45.302;-122.946;2023-03-04T12:29:02;99435.66;;;6.20;70.35
51468;BME280;37545;45.302;-122.946;2023-03-04T12:31:37;99443.13;;;6.11;71.00
51468;BME280;37545;45.302;-122.946;2023-03-04T12:34:32;99416.28;;;5.99;71.56
51468;BME280;37545;45.302;-122.946;2023-03-04T12:37:28;99418.59;;;5.90;70.40
51468;BME280;37545;45.302;-122.946;2023-03-04T12:40:11;99385.16;;;5.88;70.72
51468;BME280;37545;45.302;-122.946;2023-03-04T12:42:56;99373.97;;;5.85;71.07
51468;BME280;37545;45.302;-122.946;2023-03-04T12:45:29;99376.59;;;5.88;74.66
51468;BME280;37545;45.302;-122.946;2023-03-04T12:48:05;99364.63;;;5.88;67.95